Urb Olivia Park, Puerto Rico
Current Conditions -  °F | °C
As of 11:53 PM on Saturday 22 Nov 2014 (Local Time) from TJNR Reporting Station
Few Clouds Few Clouds  
Wind Chill: 80°   Ceiling: Unl
Heat Index: 85°   Visibility: 10mi
Dew Point: 74°   Wind: 13mph
Humidity: 81%   Direction: 80°E
Pressure: 30.04"   Gusts: 22mph
Location:  18.1853°N, 65.8667°W
Report Text: TJNR 230353Z AUTO 08011G19KT 10SM FEW046 FEW065 27/23 A3004 RMK AO2 SLP173 T02670233 402890250 $
Loading
Personal Weather Stations






























Interactive Weather Map New forecast layout! Learn more

10-Day Weather Forecast

Advertisements
Track Severe Weather on mobile